map of BYK home
BYK - Airport
Location
City:  Bouaké, Vallée du Bandama, Côte d'Ivoire (Ivory Coast)
Name:Bouaké Airport
ICAO:DIBK
IATA:BYK

Details
Type:Airport (Aerodrome, Airfield)
Use:Public/Civil, Military, International (customs port of entry)
Latitude:7°44'20"N (7.738800)
Longitude:5°04'25"W (-5.073666)
Datum:WGS 1984
Elevation:1230 ft (375 m)
Variation:4.26°W (WMM2015 magnetic declination)
0.10° annual change
Runways:1
Longest:10827 × 148 ft (3300 × 45 m), paved

Time
Time Zone:UTC+0
Local Time:

Weather
METAR:DIBK 160000Z 20004KT 8000 SCT010 25/23 Q1013 NOSIG
TAF:DIBK 152320Z 1600/1624 21007KT 9999 SCT010 PROB40 1604/1609 4000 BR BKN010 PROB30
TEMPO 1605/1608 0500 FG SCT005 BKN010
BECMG 1607/1608 BKN010 PROB30
TEMPO 1616/1622 TS BKN012 FEW023CB

Related Locations
Nearby:
Farthest:FUN: 12152 mi / 19557 km
Funafuti Atoll [Intl], TV

Find:

   beyond  
but within

Other Information
Maps:
NOTAMs:
Links:
Sources:

  
  • flag of Côte d'Ivoire (Ivory Coast)
  

Sectional Chart

Flight Planning
at skyvector.com

Satellite Image

Google Maps Satellite view

 

Copyright © 2004-2018 Karl L. Swartz. All rights reserved.
The Great Circle Mapper name and logo are trademarks of the Great Circle Mapper.
All other trademarks mentioned herein belong to their respective owners.
Please see credits for attibutions and further copyright information.

  Follow gcmap on Facebook Follow gcmap on Twitter Follow gcmap on Google+ GCmap on LinkedIn

hCard Microformat

Geo Microformat